createdAt,value
2022-12-13T00:00:17.769Z,-7.92
2022-12-13T00:01:17.739Z,-7.96
2022-12-13T00:02:17.784Z,-7.96
2022-12-13T00:03:17.709Z,-7.98
2022-12-13T00:04:17.757Z,-8.08
2022-12-13T00:05:17.695Z,-7.98
2022-12-13T00:06:17.662Z,-8.03
2022-12-13T00:07:17.648Z,-8.06
2022-12-13T00:08:17.735Z,-7.99
2022-12-13T00:09:17.629Z,-8.03
2022-12-13T00:10:17.615Z,-7.94
2022-12-13T00:11:17.603Z,-8.06
2022-12-13T00:12:17.592Z,-8.10
2022-12-13T00:13:17.577Z,-8.13
2022-12-13T00:14:17.559Z,-8.14
2022-12-13T00:15:17.546Z,-8.17
2022-12-13T00:16:17.664Z,-8.16
2022-12-13T00:17:17.525Z,-8.16
2022-12-13T00:18:17.517Z,-8.17
2022-12-13T00:19:17.500Z,-8.16
2022-12-13T00:20:17.489Z,-8.17
2022-12-13T00:21:17.475Z,-8.18
2022-12-13T00:22:17.481Z,-8.10
2022-12-13T00:23:17.447Z,-8.17
2022-12-13T00:24:17.428Z,-8.16
2022-12-13T00:25:17.425Z,-8.18
2022-12-13T00:26:17.412Z,-8.22
2022-12-13T00:27:17.399Z,-8.32
2022-12-13T00:28:17.382Z,-8.25
2022-12-13T00:29:17.366Z,-8.11
2022-12-13T00:30:17.352Z,-8.27
2022-12-13T00:31:53.640Z,-8.37
2022-12-13T00:32:18.443Z,-8.27
2022-12-13T00:33:17.321Z,-8.24
2022-12-13T00:34:17.300Z,-8.25
2022-12-13T00:35:17.497Z,-8.27
2022-12-13T00:36:17.277Z,-8.32
2022-12-13T00:37:17.272Z,-8.32
2022-12-13T00:38:17.255Z,-8.37
2022-12-13T00:39:17.245Z,-8.39
2022-12-13T00:40:17.222Z,-8.43
2022-12-13T00:41:17.220Z,-8.34
2022-12-13T00:42:17.210Z,-8.39
2022-12-13T00:43:17.190Z,-8.32
2022-12-13T00:44:17.172Z,-8.43
2022-12-13T00:45:17.407Z,-8.31
2022-12-13T00:46:17.183Z,-8.46
2022-12-13T00:47:17.140Z,-8.37
2022-12-13T00:48:17.143Z,-8.45
2022-12-13T00:49:17.106Z,-8.45
2022-12-13T00:50:17.091Z,-8.60
2022-12-13T00:51:17.085Z,-8.47
2022-12-13T00:52:17.073Z,-8.46
2022-12-13T00:53:17.054Z,-8.47
2022-12-13T00:54:17.037Z,-8.39
2022-12-13T00:55:17.232Z,-8.50
2022-12-13T00:56:17.016Z,-8.52
2022-12-13T00:57:17.213Z,-8.50
2022-12-13T00:58:16.994Z,-8.45
2022-12-13T00:59:16.984Z,-8.49
2022-12-13T01:00:16.967Z,-8.55
2022-12-13T01:01:17.005Z,-8.50
2022-12-13T01:02:16.946Z,-8.60
2022-12-13T01:03:16.987Z,-8.56
2022-12-13T01:04:16.943Z,-8.60
2022-12-13T01:05:32.320Z,-8.61
2022-12-13T01:06:18.121Z,-8.67
2022-12-13T01:07:16.876Z,-8.64
2022-12-13T01:08:16.886Z,-8.67
2022-12-13T01:09:16.853Z,-8.64
2022-12-13T01:10:16.835Z,-8.68
2022-12-13T01:11:16.837Z,-8.55
2022-12-13T01:12:16.811Z,-8.68
2022-12-13T01:13:16.806Z,-8.58
2022-12-13T01:14:16.796Z,-8.68
2022-12-13T01:15:17.040Z,-8.53
2022-12-13T01:16:16.870Z,-8.70
2022-12-13T01:17:16.749Z,-8.66
2022-12-13T01:18:16.936Z,-8.71
2022-12-13T01:19:16.721Z,-8.70
2022-12-13T01:20:16.732Z,-8.81
2022-12-13T01:21:16.700Z,-8.71
2022-12-13T01:22:16.682Z,-8.60
2022-12-13T01:23:16.676Z,-8.70
2022-12-13T01:24:16.661Z,-8.73
2022-12-13T01:25:16.920Z,-8.71
2022-12-13T01:26:16.636Z,-8.73
2022-12-13T01:27:16.624Z,-8.79
2022-12-13T01:28:16.610Z,-8.76
2022-12-13T01:29:16.593Z,-8.66
2022-12-13T01:30:16.578Z,-8.71
2022-12-13T01:31:16.599Z,-8.81
2022-12-13T01:32:16.552Z,-8.86
2022-12-13T01:33:16.547Z,-8.74
2022-12-13T01:34:16.530Z,-8.82
2022-12-13T01:35:16.939Z,-8.79
2022-12-13T01:36:16.524Z,-8.81
2022-12-13T01:37:16.499Z,-8.74
2022-12-13T01:38:16.480Z,-8.84
2022-12-13T01:39:16.468Z,-8.81
2022-12-13T01:40:16.649Z,-8.81
2022-12-13T01:41:17.546Z,-8.76
2022-12-13T01:42:16.431Z,-8.73
2022-12-13T01:43:16.419Z,-8.78
2022-12-13T01:44:16.406Z,-8.79
2022-12-13T01:45:16.643Z,-8.78
2022-12-13T01:46:16.455Z,-8.81
2022-12-13T01:47:16.362Z,-8.78
2022-12-13T01:48:16.697Z,-8.86
2022-12-13T01:49:20.168Z,-8.76
2022-12-13T01:50:16.323Z,-8.73
2022-12-13T01:51:16.315Z,-8.88
2022-12-13T01:52:16.324Z,-8.89
2022-12-13T01:53:16.285Z,-8.96
2022-12-13T01:54:21.788Z,-8.96
2022-12-13T01:55:16.444Z,-8.92
2022-12-13T01:56:16.251Z,-9.00
2022-12-13T01:57:16.238Z,-9.02
2022-12-13T01:58:16.232Z,-8.89
2022-12-13T01:59:16.221Z,-8.92
2022-12-13T02:00:16.202Z,-8.92
2022-12-13T02:01:16.221Z,-8.89
2022-12-13T02:02:16.177Z,-8.91
2022-12-13T02:03:20.974Z,-9.00
2022-12-13T02:04:16.148Z,-9.02
2022-12-13T02:05:16.405Z,-8.96
2022-12-13T02:06:16.123Z,-9.06
2022-12-13T02:07:22.719Z,-9.06
2022-12-13T02:08:17.216Z,-9.09
2022-12-13T02:09:16.080Z,-9.06
2022-12-13T02:10:16.070Z,-9.02
2022-12-13T02:11:16.059Z,-9.05
2022-12-13T02:12:16.038Z,-9.02
2022-12-13T02:13:16.037Z,-8.99
2022-12-13T02:14:16.016Z,-9.07
2022-12-13T02:15:16.391Z,-8.96
2022-12-13T02:16:22.578Z,-9.09
2022-12-13T02:17:17.007Z,-9.06
2022-12-13T02:18:15.969Z,-9.12
2022-12-13T02:19:15.957Z,-9.03
2022-12-13T02:20:21.616Z,-9.07
2022-12-13T02:21:16.952Z,-9.20
2022-12-13T02:22:15.912Z,-9.21
2022-12-13T02:23:15.902Z,-9.16
2022-12-13T02:24:15.912Z,-9.20
2022-12-13T02:25:16.216Z,-9.23
2022-12-13T02:26:15.863Z,-9.17
2022-12-13T02:27:15.913Z,-9.31
2022-12-13T02:28:30.536Z,-9.23
2022-12-13T02:29:30.451Z,-9.18
2022-12-13T02:30:16.845Z,-9.17
2022-12-13T02:31:15.848Z,-9.09
2022-12-13T02:32:15.790Z,-9.17
2022-12-13T02:33:21.830Z,-9.18
2022-12-13T02:34:16.786Z,-9.18
2022-12-13T02:35:16.018Z,-9.14
2022-12-13T02:36:15.729Z,-9.12
2022-12-13T02:37:17.617Z,-9.20
2022-12-13T02:38:20.093Z,-9.20
2022-12-13T02:39:16.715Z,-9.24
2022-12-13T02:40:16.739Z,-9.16
2022-12-13T02:41:15.672Z,-9.21
2022-12-13T02:42:21.902Z,-9.24
2022-12-13T02:43:16.674Z,-9.20
2022-12-13T02:44:22.764Z,-9.18
2022-12-13T02:45:20.576Z,-9.18
2022-12-13T02:46:15.667Z,-9.27
2022-12-13T02:47:22.029Z,-9.14
2022-12-13T02:48:16.609Z,-9.12
2022-12-13T02:49:15.572Z,-9.12
2022-12-13T02:50:15.550Z,-9.24
2022-12-13T02:51:15.917Z,-9.16
2022-12-13T02:52:22.245Z,-9.09
2022-12-13T02:53:16.537Z,-9.07
2022-12-13T02:54:15.503Z,-9.26
2022-12-13T02:55:16.045Z,-9.16
2022-12-13T02:56:15.499Z,-9.12
2022-12-13T02:57:15.469Z,-9.07
2022-12-13T02:58:16.487Z,-9.12
2022-12-13T02:59:15.441Z,-9.34
2022-12-13T03:00:15.435Z,-9.23
2022-12-13T03:01:28.783Z,-9.18
2022-12-13T03:02:31.262Z,-9.24
2022-12-13T03:03:16.548Z,-9.28
2022-12-13T03:04:15.378Z,-9.30
2022-12-13T03:05:15.719Z,-9.28
2022-12-13T03:06:15.349Z,-9.34
2022-12-13T03:07:15.332Z,-9.38
2022-12-13T03:08:15.376Z,-9.27
2022-12-13T03:09:15.306Z,-9.28
2022-12-13T03:10:15.305Z,-9.34
2022-12-13T03:11:15.300Z,-9.41
2022-12-13T03:12:15.307Z,-9.35
2022-12-13T03:13:15.265Z,-9.43
2022-12-13T03:14:15.253Z,-9.35
2022-12-13T03:15:15.618Z,-9.41
2022-12-13T03:16:15.254Z,-9.36
2022-12-13T03:17:15.208Z,-9.35
2022-12-13T03:18:15.201Z,-9.50
2022-12-13T03:19:15.182Z,-9.46
2022-12-13T03:20:22.968Z,-9.39
2022-12-13T03:21:16.185Z,-9.45
2022-12-13T03:22:15.141Z,-9.50
2022-12-13T03:23:15.159Z,-9.47
2022-12-13T03:24:15.154Z,-9.57
2022-12-13T03:25:15.281Z,-9.46
2022-12-13T03:26:16.122Z,-9.45
2022-12-13T03:27:15.073Z,-9.47
2022-12-13T03:28:15.121Z,-9.57
2022-12-13T03:29:24.251Z,-9.53
2022-12-13T03:30:16.062Z,-9.60
2022-12-13T03:31:15.095Z,-9.57
2022-12-13T03:32:15.008Z,-9.56
2022-12-13T03:33:15.003Z,-9.45
2022-12-13T03:34:14.993Z,-9.49
2022-12-13T03:35:21.838Z,-9.54
2022-12-13T03:36:15.988Z,-9.41
2022-12-13T03:37:14.944Z,-9.49
2022-12-13T03:38:22.359Z,-9.58
2022-12-13T03:39:15.944Z,-9.56
2022-12-13T03:40:14.905Z,-9.53
2022-12-13T03:41:14.893Z,-9.54
2022-12-13T03:42:14.879Z,-9.47
2022-12-13T03:43:14.865Z,-9.61
2022-12-13T03:44:15.901Z,-9.45
2022-12-13T03:45:14.977Z,-9.57
2022-12-13T03:46:14.881Z,-9.63
2022-12-13T03:47:14.822Z,-9.66
2022-12-13T03:48:14.805Z,-9.58
2022-12-13T03:49:17.567Z,-9.67
2022-12-13T03:50:26.164Z,-9.63
2022-12-13T03:51:15.792Z,-9.64
2022-12-13T03:52:14.754Z,-9.63
2022-12-13T03:53:23.333Z,-9.72
2022-12-13T03:54:15.743Z,-9.72
2022-12-13T03:55:14.942Z,-9.61
2022-12-13T03:56:14.692Z,-9.67
2022-12-13T03:57:14.688Z,-9.67
2022-12-13T03:58:14.673Z,-9.84
2022-12-13T03:59:14.662Z,-9.70
2022-12-13T04:00:14.671Z,-9.70
2022-12-13T04:01:14.628Z,-9.68
2022-12-13T04:02:14.614Z,-9.70
2022-12-13T04:03:15.694Z,-9.75
2022-12-13T04:04:14.589Z,-9.81
2022-12-13T04:05:14.897Z,-9.70
2022-12-13T04:06:21.824Z,-9.75
2022-12-13T04:07:21.825Z,-9.87
2022-12-13T04:08:22.505Z,-9.85
2022-12-13T04:09:15.560Z,-9.85
2022-12-13T04:10:26.472Z,-9.84
2022-12-13T04:11:15.526Z,-9.79
2022-12-13T04:12:14.498Z,-9.79
2022-12-13T04:13:14.475Z,-9.82
2022-12-13T04:14:22.894Z,-9.85
2022-12-13T04:15:16.008Z,-9.87
2022-12-13T04:16:14.495Z,-9.85
2022-12-13T04:17:14.426Z,-9.82
2022-12-13T04:18:14.410Z,-9.82
2022-12-13T04:19:14.396Z,-9.81
2022-12-13T04:20:14.384Z,-9.77
2022-12-13T04:21:14.367Z,-9.84
2022-12-13T04:22:14.352Z,-9.78
2022-12-13T04:23:14.343Z,-9.77
2022-12-13T04:24:14.327Z,-9.67
2022-12-13T04:25:14.567Z,-9.84
2022-12-13T04:26:14.306Z,-9.75
2022-12-13T04:27:14.300Z,-9.81
2022-12-13T04:28:22.058Z,-9.77
2022-12-13T04:29:15.293Z,-9.95
2022-12-13T04:30:14.248Z,-9.90
2022-12-13T04:31:14.290Z,-9.75
2022-12-13T04:32:26.697Z,-9.82
2022-12-13T04:33:15.242Z,-9.87
2022-12-13T04:34:14.202Z,-9.81
2022-12-13T04:35:14.747Z,-9.96
2022-12-13T04:36:14.176Z,-9.84
2022-12-13T04:37:14.164Z,-9.82
2022-12-13T04:38:14.149Z,-9.95
2022-12-13T04:39:22.612Z,-9.87
2022-12-13T04:40:15.154Z,-9.85
2022-12-13T04:41:15.132Z,-9.93
2022-12-13T04:42:14.100Z,-9.92
2022-12-13T04:43:14.084Z,-9.99
2022-12-13T04:44:27.513Z,-9.90
2022-12-13T04:45:15.350Z,-9.87
2022-12-13T04:46:14.094Z,-9.93
2022-12-13T04:47:14.033Z,-9.81
2022-12-13T04:48:14.039Z,-9.84
2022-12-13T04:49:15.036Z,-9.95
2022-12-13T04:50:14.001Z,-9.90
2022-12-13T04:51:13.983Z,-9.85
2022-12-13T04:52:13.971Z,-9.87
2022-12-13T04:53:14.988Z,-9.97
2022-12-13T04:54:23.937Z,-10.05
2022-12-13T04:55:15.204Z,-10.03
2022-12-13T04:56:13.920Z,-9.93
2022-12-13T04:57:13.902Z,-9.93
2022-12-13T04:58:18.328Z,-9.97
2022-12-13T04:59:14.903Z,-10.05
2022-12-13T05:00:13.859Z,-9.96
2022-12-13T05:01:13.916Z,-9.96
2022-12-13T05:02:13.860Z,-10.06
2022-12-13T05:03:14.848Z,-9.99
2022-12-13T05:04:13.835Z,-10.10
2022-12-13T05:05:14.208Z,-10.06
2022-12-13T05:06:26.929Z,-10.06
2022-12-13T05:07:14.801Z,-10.03
2022-12-13T05:08:13.872Z,-10.00
2022-12-13T05:09:13.750Z,-10.08
2022-12-13T05:10:32.168Z,-9.88
2022-12-13T05:11:13.730Z,-9.97
2022-12-13T05:12:22.884Z,-9.95
2022-12-13T05:13:14.726Z,-10.02
2022-12-13T05:14:13.680Z,-9.97
2022-12-13T05:15:14.107Z,-9.97
2022-12-13T05:16:13.774Z,-9.92
2022-12-13T05:17:13.648Z,-9.99
2022-12-13T05:18:13.634Z,-10.00
2022-12-13T05:19:13.619Z,-9.87
2022-12-13T05:20:13.632Z,-9.97
2022-12-13T05:21:13.592Z,-10.02
2022-12-13T05:22:19.192Z,-10.06
2022-12-13T05:23:14.593Z,-9.90
2022-12-13T05:24:14.580Z,-9.96
2022-12-13T05:25:13.996Z,-9.99
2022-12-13T05:26:13.538Z,-10.11
2022-12-13T05:27:24.426Z,-9.87
2022-12-13T05:28:28.232Z,-9.93
2022-12-13T05:29:14.519Z,-9.95
2022-12-13T05:30:13.480Z,-9.93
2022-12-13T05:31:23.201Z,-9.99
2022-12-13T05:32:13.473Z,-9.81
2022-12-13T05:33:13.443Z,-9.93
2022-12-13T05:34:13.447Z,-9.97
2022-12-13T05:35:14.021Z,-9.95
2022-12-13T05:36:13.411Z,-9.93
2022-12-13T05:37:13.379Z,-9.96
2022-12-13T05:38:13.375Z,-9.93
2022-12-13T05:39:29.391Z,-9.99
2022-12-13T05:40:14.369Z,-9.92
2022-12-13T05:41:13.329Z,-9.92
2022-12-13T05:42:13.318Z,-9.99
2022-12-13T05:43:21.310Z,-10.06
2022-12-13T05:44:14.315Z,-9.99
2022-12-13T05:45:13.581Z,-9.99
2022-12-13T05:46:13.484Z,-10.02
2022-12-13T05:47:13.267Z,-10.02
2022-12-13T05:48:13.239Z,-10.11
2022-12-13T05:49:13.232Z,-10.05
2022-12-13T05:50:13.236Z,-10.08
2022-12-13T05:51:13.212Z,-10.06
2022-12-13T05:52:13.211Z,-10.00
2022-12-13T05:53:13.180Z,-10.03
2022-12-13T05:54:13.169Z,-9.97
2022-12-13T05:55:13.416Z,-10.03
2022-12-13T05:56:13.539Z,-10.06
2022-12-13T05:57:14.147Z,-10.06
2022-12-13T05:58:13.550Z,-10.08
2022-12-13T05:59:13.098Z,-10.05
2022-12-13T06:00:29.904Z,-10.05
2022-12-13T06:01:14.104Z,-10.10
2022-12-13T06:02:16.817Z,-10.11
2022-12-13T06:03:14.233Z,-10.06
2022-12-13T06:04:13.045Z,-10.08
2022-12-13T06:05:14.506Z,-10.18
2022-12-13T06:06:13.009Z,-9.97
2022-12-13T06:07:13.008Z,-10.14
2022-12-13T06:08:24.403Z,-10.18
2022-12-13T06:09:13.992Z,-10.13
2022-12-13T06:10:12.995Z,-10.14
2022-12-13T06:11:31.126Z,-10.23
2022-12-13T06:12:31.444Z,-10.17
2022-12-13T06:13:21.787Z,-10.16
2022-12-13T06:14:22.872Z,-10.10
2022-12-13T06:15:13.931Z,-10.23
2022-12-13T06:16:23.428Z,-10.23
2022-12-13T06:17:13.924Z,-10.18
2022-12-13T06:18:13.892Z,-10.18
2022-12-13T06:19:12.850Z,-10.14
2022-12-13T06:20:23.891Z,-10.21
2022-12-13T06:21:13.846Z,-10.23
2022-12-13T06:22:12.814Z,-10.26
2022-12-13T06:23:12.800Z,-10.21
2022-12-13T06:24:12.815Z,-10.24
2022-12-13T06:25:30.812Z,-10.20
2022-12-13T06:26:13.786Z,-10.20
2022-12-13T06:27:12.753Z,-10.13
2022-12-13T06:28:12.733Z,-10.14
2022-12-13T06:29:12.728Z,-10.21
2022-12-13T06:30:13.737Z,-10.10
2022-12-13T06:31:12.744Z,-10.17
2022-12-13T06:32:12.682Z,-10.17
2022-12-13T06:33:13.305Z,-10.32
2022-12-13T06:34:13.795Z,-10.31
2022-12-13T06:35:27.502Z,-10.23
2022-12-13T06:36:13.663Z,-10.24
2022-12-13T06:37:12.623Z,-10.26
2022-12-13T06:38:12.613Z,-10.29
2022-12-13T06:39:13.624Z,-10.20
2022-12-13T06:40:12.608Z,-10.16
2022-12-13T06:41:12.583Z,-10.18
2022-12-13T06:42:12.561Z,-10.16
2022-12-13T06:43:12.554Z,-10.20
2022-12-13T06:44:12.542Z,-10.14
2022-12-13T06:45:12.529Z,-10.18
2022-12-13T06:46:12.576Z,-10.31
2022-12-13T06:47:12.933Z,-10.26
2022-12-13T06:48:17.491Z,-10.23
2022-12-13T06:49:13.505Z,-10.10
2022-12-13T06:50:12.467Z,-10.26
2022-12-13T06:51:12.450Z,-10.16
2022-12-13T06:52:13.482Z,-10.23
2022-12-13T06:53:12.426Z,-10.26
2022-12-13T06:54:12.408Z,-10.35
2022-12-13T06:55:12.412Z,-10.31
2022-12-13T06:56:12.401Z,-10.20
2022-12-13T06:57:12.375Z,-10.31
2022-12-13T06:58:12.363Z,-10.37
2022-12-13T06:59:12.349Z,-10.21
2022-12-13T07:00:12.341Z,-10.29
2022-12-13T07:01:15.055Z,-10.26
2022-12-13T07:02:24.330Z,-10.26
2022-12-13T07:03:13.429Z,-10.21
2022-12-13T07:04:29.309Z,-10.21
2022-12-13T07:05:13.301Z,-10.14
2022-12-13T07:06:12.265Z,-10.21
2022-12-13T07:07:12.250Z,-10.28
2022-12-13T07:08:12.292Z,-10.23
2022-12-13T07:09:12.222Z,-10.21
2022-12-13T07:10:21.540Z,-10.24
2022-12-13T07:11:13.231Z,-10.31
2022-12-13T07:12:12.211Z,-10.23
2022-12-13T07:13:12.178Z,-10.18
2022-12-13T07:14:12.173Z,-10.21
2022-12-13T07:15:12.159Z,-10.26
2022-12-13T07:16:12.203Z,-10.24
2022-12-13T07:17:12.134Z,-10.14
2022-12-13T07:18:12.162Z,-10.08
2022-12-13T07:19:24.112Z,-10.16
2022-12-13T07:20:13.114Z,-10.11
2022-12-13T07:21:21.891Z,-10.08
2022-12-13T07:22:13.147Z,-10.10
2022-12-13T07:23:12.051Z,-10.06
2022-12-13T07:24:12.034Z,-10.14
2022-12-13T07:25:28.515Z,-10.10
2022-12-13T07:26:13.035Z,-10.11
2022-12-13T07:27:12.002Z,-10.10
2022-12-13T07:28:12.036Z,-9.96
2022-12-13T07:29:11.975Z,-10.06
2022-12-13T07:30:12.016Z,-10.03
2022-12-13T07:31:11.972Z,-10.02
2022-12-13T07:32:11.949Z,-10.05
2022-12-13T07:33:11.993Z,-10.06
2022-12-13T07:34:15.590Z,-10.03
2022-12-13T07:35:11.898Z,-9.99
2022-12-13T07:36:11.912Z,-10.02
2022-12-13T07:37:30.014Z,-9.88
2022-12-13T07:38:12.898Z,-9.97
2022-12-13T07:39:11.858Z,-9.88
2022-12-13T07:40:11.845Z,-9.88
2022-12-13T07:41:12.005Z,-9.82
2022-12-13T07:42:11.814Z,-9.84
2022-12-13T07:43:11.814Z,-9.97
2022-12-13T07:44:11.811Z,-9.85
2022-12-13T07:45:11.775Z,-9.78
2022-12-13T07:46:11.884Z,-9.85
2022-12-13T07:47:11.751Z,-9.61
2022-12-13T07:48:11.746Z,-9.79
2022-12-13T07:49:11.726Z,-9.82
2022-12-13T07:50:24.040Z,-9.60
2022-12-13T07:51:12.734Z,-9.72
2022-12-13T07:52:11.695Z,-9.70
2022-12-13T07:53:11.685Z,-9.66
2022-12-13T07:54:11.660Z,-9.67
2022-12-13T07:55:11.652Z,-9.46
2022-12-13T07:56:11.637Z,-9.64
2022-12-13T07:57:11.628Z,-9.61
2022-12-13T07:58:11.610Z,-9.56
2022-12-13T07:59:11.606Z,-9.49
2022-12-13T08:00:11.608Z,-9.26
2022-12-13T08:01:11.576Z,-9.43
2022-12-13T08:02:11.589Z,-9.36
2022-12-13T08:03:24.381Z,-9.31
2022-12-13T08:04:11.538Z,-9.14
2022-12-13T08:05:25.745Z,-9.23
2022-12-13T08:06:12.547Z,-9.17
2022-12-13T08:07:11.500Z,-9.05
2022-12-13T08:08:11.761Z,-9.05
2022-12-13T08:09:11.469Z,-9.05
2022-12-13T08:10:11.464Z,-9.03
2022-12-13T08:11:11.441Z,-8.97
2022-12-13T08:12:11.430Z,-9.10
2022-12-13T08:13:11.423Z,-9.00
2022-12-13T08:14:11.403Z,-9.00
2022-12-13T08:15:14.116Z,-8.99
2022-12-13T08:16:26.632Z,-9.02
2022-12-13T08:17:12.532Z,-8.89
2022-12-13T08:18:11.355Z,-8.85
2022-12-13T08:19:11.338Z,-8.84
2022-12-13T08:20:11.325Z,-8.91
2022-12-13T08:21:51.738Z,-8.82
2022-12-13T08:22:14.126Z,-8.70
2022-12-13T08:23:11.287Z,-8.79
2022-12-13T08:24:15.580Z,-8.70
2022-12-13T08:25:11.258Z,-8.68
2022-12-13T08:26:11.248Z,-8.66
2022-12-13T08:27:11.230Z,-8.61
2022-12-13T08:28:11.229Z,-8.47
2022-12-13T08:29:11.216Z,-8.45
2022-12-13T08:30:11.198Z,-8.40
2022-12-13T08:31:11.261Z,-8.39
2022-12-13T08:32:11.196Z,-8.34
2022-12-13T08:33:11.159Z,-8.43
2022-12-13T08:34:11.143Z,-8.42
2022-12-13T08:35:11.155Z,-8.43
2022-12-13T08:36:11.119Z,-8.35
2022-12-13T08:37:11.160Z,-8.32
2022-12-13T08:38:11.128Z,-8.46
2022-12-13T08:39:11.126Z,-8.42
2022-12-13T08:40:11.114Z,-8.39
2022-12-13T08:41:11.099Z,-8.34
2022-12-13T08:42:16.018Z,-8.27
2022-12-13T08:43:12.051Z,-8.22
2022-12-13T08:44:11.016Z,-8.11
2022-12-13T08:45:10.999Z,-8.18
2022-12-13T08:46:11.035Z,-8.11
2022-12-13T08:47:10.975Z,-8.07
2022-12-13T08:48:10.969Z,-8.06
2022-12-13T08:49:10.995Z,-7.96
2022-12-13T08:50:10.938Z,-7.88
2022-12-13T08:51:10.931Z,-7.95
2022-12-13T08:52:10.911Z,-7.91
2022-12-13T08:53:10.903Z,-7.95
2022-12-13T08:54:11.636Z,-7.84
2022-12-13T08:55:10.888Z,-8.04
2022-12-13T08:56:10.862Z,-7.80
2022-12-13T08:57:10.855Z,-7.77
2022-12-13T08:58:10.831Z,-7.73
2022-12-13T08:59:10.829Z,-7.64
2022-12-13T09:00:10.809Z,-7.67
2022-12-13T09:01:10.857Z,-7.52
2022-12-13T09:02:10.870Z,-7.67
2022-12-13T09:03:10.774Z,-7.55
2022-12-13T09:04:10.779Z,-7.53
2022-12-13T09:05:10.744Z,-7.57
2022-12-13T09:06:10.740Z,-7.46
2022-12-13T09:07:10.715Z,-7.45
2022-12-13T09:08:23.323Z,-7.27
2022-12-13T09:09:11.718Z,-7.29
2022-12-13T09:10:27.174Z,-7.34
2022-12-13T09:11:23.927Z,-7.24
2022-12-13T09:12:30.583Z,-7.27
2022-12-13T09:13:12.044Z,-7.18
2022-12-13T09:14:13.880Z,-7.17
2022-12-13T09:15:22.418Z,-7.18
2022-12-13T09:16:14.120Z,-7.17
2022-12-13T09:17:23.673Z,-7.10
2022-12-13T09:18:15.286Z,-7.03
2022-12-13T09:19:25.056Z,-7.11
2022-12-13T09:20:28.734Z,-7.00
2022-12-13T09:21:12.317Z,-6.98
2022-12-13T09:22:14.624Z,-6.85
2022-12-13T09:23:13.983Z,-6.85
2022-12-13T09:24:23.683Z,-6.87
2022-12-13T09:25:14.810Z,-6.84
2022-12-13T09:26:10.555Z,-6.71
2022-12-13T09:27:10.572Z,-6.77
2022-12-13T09:28:11.672Z,-6.75
2022-12-13T09:29:11.853Z,-6.79
2022-12-13T09:30:10.514Z,-6.69
2022-12-13T09:31:10.577Z,-6.64
2022-12-13T09:32:10.577Z,-6.52
2022-12-13T09:33:28.238Z,-6.56
2022-12-13T09:34:11.632Z,-6.56
2022-12-13T09:35:10.463Z,-6.59
2022-12-13T09:36:10.478Z,-6.61
2022-12-13T09:37:10.432Z,-6.52
2022-12-13T09:38:10.431Z,-6.44
2022-12-13T09:39:10.479Z,-6.53
2022-12-13T09:40:16.075Z,-6.37
2022-12-13T09:41:11.436Z,-6.38
2022-12-13T09:42:11.428Z,-6.41
2022-12-13T09:43:12.262Z,-6.32
2022-12-13T09:44:32.205Z,-6.31
2022-12-13T09:45:22.258Z,-6.08
2022-12-13T09:46:13.065Z,-6.03
2022-12-13T09:47:13.664Z,-6.24
2022-12-13T09:48:13.529Z,-6.02
2022-12-13T09:49:13.524Z,-6.05
2022-12-13T09:50:14.775Z,-5.95
2022-12-13T09:51:17.015Z,-5.84
2022-12-13T09:52:21.813Z,-5.73
2022-12-13T09:53:21.140Z,-5.84
2022-12-13T09:54:11.305Z,-5.71
2022-12-13T09:55:11.015Z,-5.88
2022-12-13T09:56:11.315Z,-5.64
2022-12-13T09:57:10.159Z,-5.49
2022-12-13T09:58:10.130Z,-5.33
2022-12-13T09:59:10.217Z,-5.42
2022-12-13T10:00:10.132Z,-5.25
2022-12-13T10:01:10.228Z,-5.21
2022-12-13T10:02:10.122Z,-4.97
2022-12-13T10:03:10.088Z,-5.12
2022-12-13T10:04:10.125Z,-5.01
2022-12-13T10:05:21.451Z,-5.05
2022-12-13T10:06:11.162Z,-5.16
2022-12-13T10:07:10.015Z,-4.94
2022-12-13T10:08:10.084Z,-5.06
2022-12-13T10:09:09.968Z,-4.88
2022-12-13T10:10:10.016Z,-4.93
2022-12-13T10:11:09.977Z,-4.66
2022-12-13T10:12:10.010Z,-4.65
2022-12-13T10:13:09.985Z,-4.66
2022-12-13T10:14:10.020Z,-4.79
2022-12-13T10:15:09.921Z,-4.51
2022-12-13T10:16:09.956Z,-4.69
2022-12-13T10:17:09.946Z,-4.52
2022-12-13T10:18:09.898Z,-4.52
2022-12-13T10:19:09.944Z,-4.63
2022-12-13T10:20:10.983Z,-4.55
2022-12-13T10:21:09.817Z,-4.63
2022-12-13T10:22:09.797Z,-4.55
2022-12-13T10:23:33.305Z,-4.40
2022-12-13T10:24:33.003Z,-4.37
2022-12-13T10:25:10.900Z,-4.22
2022-12-13T10:26:09.864Z,-4.10
2022-12-13T10:27:10.869Z,-4.02
2022-12-13T10:28:09.778Z,-4.07
2022-12-13T10:29:09.797Z,-4.12
2022-12-13T10:30:09.800Z,-3.97
2022-12-13T10:31:09.717Z,-3.92
2022-12-13T10:32:09.718Z,-3.92
2022-12-13T10:33:09.718Z,-3.86
2022-12-13T10:34:09.687Z,-3.79
2022-12-13T10:35:09.743Z,-3.79
2022-12-13T10:36:09.664Z,-3.65
2022-12-13T10:37:09.658Z,-3.54
2022-12-13T10:38:09.588Z,-3.49
2022-12-13T10:39:09.650Z,-3.51
2022-12-13T10:40:09.706Z,-3.46
2022-12-13T10:41:09.572Z,-3.30
2022-12-13T10:42:09.578Z,-3.31
2022-12-13T10:43:09.534Z,-3.16
2022-12-13T10:44:09.562Z,-3.16
2022-12-13T10:45:09.588Z,-3.05
2022-12-13T10:46:09.597Z,-2.98
2022-12-13T10:47:09.506Z,-2.94
2022-12-13T10:48:09.564Z,-2.84
2022-12-13T10:49:09.491Z,-2.80
2022-12-13T10:50:09.547Z,-2.71
2022-12-13T10:51:09.507Z,-2.74
2022-12-13T10:52:09.468Z,-2.68
2022-12-13T10:53:09.434Z,-2.59
2022-12-13T10:54:09.455Z,-2.50
2022-12-13T10:55:23.586Z,-2.65
2022-12-13T10:56:10.505Z,-2.65
2022-12-13T10:57:09.412Z,-2.53
2022-12-13T10:58:09.372Z,-2.50
2022-12-13T10:59:15.165Z,-2.44
2022-12-13T11:00:15.358Z,-2.19
2022-12-13T11:01:09.271Z,-2.10
2022-12-13T11:02:09.249Z,-1.83
2022-12-13T11:03:09.190Z,-1.59
2022-12-13T11:04:09.177Z,-1.28
2022-12-13T11:05:11.392Z,-1.07
2022-12-13T11:06:09.155Z,-1.05
2022-12-13T11:07:09.144Z,-1.08
2022-12-13T11:08:09.139Z,-1.18
2022-12-13T11:09:09.114Z,-1.47
2022-12-13T11:10:14.554Z,-1.36
2022-12-13T11:11:09.088Z,-1.46
2022-12-13T11:12:09.099Z,-1.47
2022-12-13T11:13:09.060Z,-1.68
2022-12-13T11:14:09.048Z,-1.50
2022-12-13T11:15:09.034Z,-1.47
2022-12-13T11:16:09.085Z,-1.61
2022-12-13T11:17:09.003Z,-1.51
2022-12-13T11:18:08.990Z,-1.51
2022-12-13T11:19:09.037Z,-1.43
2022-12-13T11:20:08.970Z,-1.62
2022-12-13T11:21:08.953Z,-1.47
2022-12-13T11:22:08.941Z,-1.36
2022-12-13T11:23:08.928Z,-1.21
2022-12-13T11:24:08.916Z,-1.15
2022-12-13T11:25:08.906Z,-1.07
2022-12-13T11:26:08.886Z,-0.99
2022-12-13T11:27:08.875Z,-0.97
2022-12-13T11:28:25.824Z,-0.86
2022-12-13T11:29:09.871Z,-0.76
2022-12-13T11:30:08.832Z,-0.65
2022-12-13T11:31:08.817Z,-0.59
2022-12-13T11:32:08.902Z,-0.58
2022-12-13T11:33:08.791Z,-0.49
2022-12-13T11:34:08.787Z,-0.45
2022-12-13T11:35:08.766Z,-0.42
2022-12-13T11:36:08.756Z,-0.23
2022-12-13T11:37:08.738Z,-0.13
2022-12-13T11:38:08.728Z,0.04
2022-12-13T11:39:08.715Z,0.34
2022-12-13T11:40:08.704Z,0.52
2022-12-13T11:41:08.687Z,0.72
2022-12-13T11:42:08.686Z,0.77
2022-12-13T11:43:08.660Z,1.00
2022-12-13T11:44:08.665Z,1.14
2022-12-13T11:45:08.633Z,1.29
2022-12-13T11:46:08.649Z,1.39
2022-12-13T11:47:08.608Z,1.50
2022-12-13T11:48:08.597Z,1.57
2022-12-13T11:49:08.578Z,1.77
2022-12-13T11:50:08.559Z,1.63
2022-12-13T11:51:08.553Z,1.60
2022-12-13T11:52:08.537Z,1.71
2022-12-13T11:53:08.529Z,1.89
2022-12-13T11:54:08.514Z,2.15
2022-12-13T11:55:08.498Z,2.32
2022-12-13T11:56:08.481Z,2.07
2022-12-13T11:57:08.467Z,2.20
2022-12-13T11:58:08.456Z,2.32
2022-12-13T11:59:17.365Z,2.37
2022-12-13T12:00:13.316Z,2.32
2022-12-13T12:01:08.421Z,1.89
2022-12-13T12:02:08.420Z,1.83
2022-12-13T12:03:08.529Z,1.95
2022-12-13T12:04:08.373Z,2.11
2022-12-13T12:05:08.365Z,2.41
2022-12-13T12:06:08.344Z,2.51
2022-12-13T12:07:30.560Z,2.26
2022-12-13T12:08:33.493Z,2.22
2022-12-13T12:09:09.336Z,2.18
2022-12-13T12:10:08.302Z,2.18
2022-12-13T12:11:08.279Z,2.29
2022-12-13T12:12:08.269Z,2.14
2022-12-13T12:13:08.249Z,2.22
2022-12-13T12:14:08.243Z,1.98
2022-12-13T12:15:15.401Z,2.19
2022-12-13T12:16:09.346Z,2.33
2022-12-13T12:17:08.202Z,2.20
2022-12-13T12:18:08.182Z,2.20
2022-12-13T12:19:08.176Z,2.26
2022-12-13T12:20:08.236Z,2.20
2022-12-13T12:21:08.152Z,2.20
2022-12-13T12:22:15.830Z,2.44
2022-12-13T12:23:09.145Z,2.65
2022-12-13T12:24:08.108Z,2.87
2022-12-13T12:25:08.099Z,3.02
2022-12-13T12:26:08.074Z,2.98
2022-12-13T12:27:08.069Z,2.97
2022-12-13T12:28:08.047Z,2.99
2022-12-13T12:29:11.946Z,2.77
2022-12-13T12:30:08.031Z,2.77
2022-12-13T12:31:08.039Z,2.79
2022-12-13T12:32:08.018Z,2.74
2022-12-13T12:33:07.985Z,2.74
2022-12-13T12:34:07.967Z,2.69
2022-12-13T12:35:07.965Z,2.66
2022-12-13T12:36:07.944Z,2.86
2022-12-13T12:37:07.938Z,2.86
2022-12-13T12:38:07.916Z,2.76
2022-12-13T12:39:07.906Z,2.74
2022-12-13T12:40:07.886Z,2.77
2022-12-13T12:41:15.938Z,2.79
2022-12-13T12:42:07.861Z,2.83
2022-12-13T12:43:16.330Z,2.76
2022-12-13T12:44:08.855Z,2.65
2022-12-13T12:45:10.466Z,2.45
2022-12-13T12:46:07.876Z,2.37
2022-12-13T12:49:09.242Z,2.12
2022-12-13T12:50:07.752Z,2.18
2022-12-13T12:51:07.743Z,2.09
2022-12-13T12:52:07.734Z,2.04
2022-12-13T12:53:07.713Z,2.14